sensor_id;sensor_type;location;lat;lon;timestamp;P1;durP1;ratioP1;P2;durP2;ratioP2
9240;SDS011;53485;49.326;9.738;2022-11-15T00:01:07;4.37;;;1.40;;
9240;SDS011;53485;49.326;9.738;2022-11-15T00:03:33;2.57;;;1.83;;
9240;SDS011;53485;49.326;9.738;2022-11-15T00:06:01;2.67;;;1.63;;
9240;SDS011;53485;49.326;9.738;2022-11-15T00:08:30;4.00;;;1.40;;
9240;SDS011;53485;49.326;9.738;2022-11-15T00:10:56;3.97;;;1.73;;
9240;SDS011;53485;49.326;9.738;2022-11-15T00:13:23;3.03;;;1.40;;
9240;SDS011;53485;49.326;9.738;2022-11-15T00:15:50;2.57;;;1.30;;
9240;SDS011;53485;49.326;9.738;2022-11-15T00:18:18;1.57;;;1.47;;
9240;SDS011;53485;49.326;9.738;2022-11-15T00:20:45;1.30;;;1.20;;
9240;SDS011;53485;49.326;9.738;2022-11-15T00:23:12;2.10;;;1.17;;
9240;SDS011;53485;49.326;9.738;2022-11-15T00:25:39;3.97;;;1.53;;
9240;SDS011;53485;49.326;9.738;2022-11-15T00:28:06;1.30;;;1.20;;
9240;SDS011;53485;49.326;9.738;2022-11-15T00:30:34;2.50;;;1.10;;
9240;SDS011;53485;49.326;9.738;2022-11-15T00:33:02;2.30;;;1.37;;
9240;SDS011;53485;49.326;9.738;2022-11-15T00:35:28;1.57;;;0.97;;
9240;SDS011;53485;49.326;9.738;2022-11-15T00:37:55;3.20;;;1.30;;
9240;SDS011;53485;49.326;9.738;2022-11-15T00:40:22;2.50;;;1.20;;
9240;SDS011;53485;49.326;9.738;2022-11-15T00:42:50;2.50;;;1.13;;
9240;SDS011;53485;49.326;9.738;2022-11-15T00:45:17;3.37;;;1.30;;
9240;SDS011;53485;49.326;9.738;2022-11-15T00:47:45;3.27;;;1.50;;
9240;SDS011;53485;49.326;9.738;2022-11-15T00:50:12;3.03;;;1.20;;
9240;SDS011;53485;49.326;9.738;2022-11-15T00:52:39;2.10;;;1.17;;
9240;SDS011;53485;49.326;9.738;2022-11-15T00:55:06;3.00;;;1.40;;
9240;SDS011;53485;49.326;9.738;2022-11-15T00:57:34;4.40;;;1.03;;
9240;SDS011;53485;49.326;9.738;2022-11-15T01:00:01;1.43;;;1.23;;
9240;SDS011;53485;49.326;9.738;2022-11-15T01:02:28;1.93;;;1.30;;
9240;SDS011;53485;49.326;9.738;2022-11-15T01:04:56;1.60;;;1.20;;
9240;SDS011;53485;49.326;9.738;2022-11-15T01:07:23;1.30;;;1.00;;
9240;SDS011;53485;49.326;9.738;2022-11-15T01:09:51;2.43;;;1.20;;
9240;SDS011;53485;49.326;9.738;2022-11-15T01:12:18;3.90;;;1.10;;
9240;SDS011;53485;49.326;9.738;2022-11-15T01:14:45;4.43;;;1.20;;
9240;SDS011;53485;49.326;9.738;2022-11-15T01:17:13;3.23;;;1.47;;
9240;SDS011;53485;49.326;9.738;2022-11-15T01:19:40;1.53;;;1.10;;
9240;SDS011;53485;49.326;9.738;2022-11-15T01:22:07;2.83;;;1.10;;
9240;SDS011;53485;49.326;9.738;2022-11-15T01:24:35;1.30;;;1.10;;
9240;SDS011;53485;49.326;9.738;2022-11-15T01:27:02;2.37;;;1.00;;
9240;SDS011;53485;49.326;9.738;2022-11-15T01:29:30;1.27;;;0.93;;
9240;SDS011;53485;49.326;9.738;2022-11-15T01:31:57;2.80;;;1.00;;
9240;SDS011;53485;49.326;9.738;2022-11-15T01:34:24;1.30;;;0.90;;
9240;SDS011;53485;49.326;9.738;2022-11-15T01:36:52;2.17;;;1.00;;
9240;SDS011;53485;49.326;9.738;2022-11-15T01:39:19;3.90;;;1.27;;
9240;SDS011;53485;49.326;9.738;2022-11-15T01:41:47;1.80;;;0.80;;
9240;SDS011;53485;49.326;9.738;2022-11-15T01:46:53;1.90;;;0.97;;
9240;SDS011;53485;49.326;9.738;2022-11-15T01:49:20;4.27;;;0.97;;
9240;SDS011;53485;49.326;9.738;2022-11-15T01:51:47;2.70;;;1.00;;
9240;SDS011;53485;49.326;9.738;2022-11-15T01:54:15;2.50;;;0.90;;
9240;SDS011;53485;49.326;9.738;2022-11-15T01:56:43;1.80;;;1.07;;
9240;SDS011;53485;49.326;9.738;2022-11-15T01:59:10;1.07;;;0.90;;
9240;SDS011;53485;49.326;9.738;2022-11-15T02:01:37;1.33;;;0.83;;
9240;SDS011;53485;49.326;9.738;2022-11-15T02:04:07;1.33;;;0.90;;
9240;SDS011;53485;49.326;9.738;2022-11-15T02:06:34;1.53;;;0.90;;
9240;SDS011;53485;49.326;9.738;2022-11-15T02:09:01;1.70;;;1.10;;
9240;SDS011;53485;49.326;9.738;2022-11-15T02:11:28;2.63;;;1.10;;
9240;SDS011;53485;49.326;9.738;2022-11-15T02:13:55;2.00;;;0.83;;
9240;SDS011;53485;49.326;9.738;2022-11-15T02:16:30;1.47;;;0.90;;
9240;SDS011;53485;49.326;9.738;2022-11-15T02:18:57;2.67;;;0.90;;
9240;SDS011;53485;49.326;9.738;2022-11-15T02:24:06;1.47;;;0.90;;
9240;SDS011;53485;49.326;9.738;2022-11-15T02:27:06;2.40;;;0.93;;
9240;SDS011;53485;49.326;9.738;2022-11-15T02:29:30;1.60;;;0.90;;
9240;SDS011;53485;49.326;9.738;2022-11-15T02:32:10;2.97;;;0.97;;
9240;SDS011;53485;49.326;9.738;2022-11-15T02:34:50;2.47;;;0.90;;
9240;SDS011;53485;49.326;9.738;2022-11-15T02:37:37;2.90;;;0.90;;
9240;SDS011;53485;49.326;9.738;2022-11-15T02:40:06;1.97;;;0.70;;
9240;SDS011;53485;49.326;9.738;2022-11-15T02:42:35;4.37;;;1.10;;
9240;SDS011;53485;49.326;9.738;2022-11-15T02:45:06;2.73;;;1.10;;
9240;SDS011;53485;49.326;9.738;2022-11-15T02:47:33;3.73;;;0.90;;
9240;SDS011;53485;49.326;9.738;2022-11-15T02:50:00;2.47;;;0.90;;
9240;SDS011;53485;49.326;9.738;2022-11-15T02:52:27;4.50;;;0.90;;
9240;SDS011;53485;49.326;9.738;2022-11-15T02:54:55;2.40;;;1.00;;
9240;SDS011;53485;49.326;9.738;2022-11-15T02:57:58;3.43;;;1.10;;
9240;SDS011;53485;49.326;9.738;2022-11-15T03:00:10;3.07;;;0.83;;
9240;SDS011;53485;49.326;9.738;2022-11-15T03:02:41;2.37;;;1.07;;
9240;SDS011;53485;49.326;9.738;2022-11-15T03:05:18;2.83;;;1.10;;
9240;SDS011;53485;49.326;9.738;2022-11-15T03:07:50;1.63;;;0.87;;
9240;SDS011;53485;49.326;9.738;2022-11-15T03:10:16;3.20;;;1.00;;
9240;SDS011;53485;49.326;9.738;2022-11-15T03:12:49;1.00;;;0.90;;
9240;SDS011;53485;49.326;9.738;2022-11-15T03:15:29;1.27;;;0.83;;
9240;SDS011;53485;49.326;9.738;2022-11-15T03:17:55;2.07;;;0.80;;
9240;SDS011;53485;49.326;9.738;2022-11-15T03:20:21;1.00;;;0.90;;
9240;SDS011;53485;49.326;9.738;2022-11-15T03:22:48;3.47;;;1.10;;
9240;SDS011;53485;49.326;9.738;2022-11-15T03:25:18;3.60;;;1.23;;
9240;SDS011;53485;49.326;9.738;2022-11-15T03:27:44;1.63;;;0.93;;
9240;SDS011;53485;49.326;9.738;2022-11-15T03:30:10;3.63;;;1.27;;
9240;SDS011;53485;49.326;9.738;2022-11-15T03:32:41;2.00;;;1.10;;
9240;SDS011;53485;49.326;9.738;2022-11-15T03:35:08;1.90;;;1.03;;
9240;SDS011;53485;49.326;9.738;2022-11-15T03:37:35;4.00;;;0.90;;
9240;SDS011;53485;49.326;9.738;2022-11-15T03:40:03;3.40;;;0.90;;
9240;SDS011;53485;49.326;9.738;2022-11-15T03:42:46;2.60;;;1.13;;
9240;SDS011;53485;49.326;9.738;2022-11-15T03:45:16;3.60;;;1.00;;
9240;SDS011;53485;49.326;9.738;2022-11-15T03:47:43;1.13;;;0.90;;
9240;SDS011;53485;49.326;9.738;2022-11-15T03:50:24;3.00;;;1.17;;
9240;SDS011;53485;49.326;9.738;2022-11-15T03:52:51;3.07;;;1.20;;
9240;SDS011;53485;49.326;9.738;2022-11-15T03:55:18;1.40;;;1.10;;
9240;SDS011;53485;49.326;9.738;2022-11-15T03:57:45;2.23;;;1.00;;
9240;SDS011;53485;49.326;9.738;2022-11-15T04:00:11;1.87;;;1.00;;
9240;SDS011;53485;49.326;9.738;2022-11-15T04:02:39;3.10;;;1.00;;
9240;SDS011;53485;49.326;9.738;2022-11-15T04:05:06;1.83;;;1.00;;
9240;SDS011;53485;49.326;9.738;2022-11-15T04:07:34;1.57;;;1.00;;
9240;SDS011;53485;49.326;9.738;2022-11-15T04:10:01;2.23;;;1.10;;
9240;SDS011;53485;49.326;9.738;2022-11-15T04:12:28;2.70;;;0.93;;
9240;SDS011;53485;49.326;9.738;2022-11-15T04:14:57;1.73;;;0.90;;
9240;SDS011;53485;49.326;9.738;2022-11-15T04:17:29;1.20;;;1.00;;
9240;SDS011;53485;49.326;9.738;2022-11-15T04:19:57;1.67;;;1.10;;
9240;SDS011;53485;49.326;9.738;2022-11-15T04:22:29;2.20;;;1.20;;
9240;SDS011;53485;49.326;9.738;2022-11-15T04:25:16;2.87;;;0.90;;
9240;SDS011;53485;49.326;9.738;2022-11-15T04:27:44;1.20;;;1.00;;
9240;SDS011;53485;49.326;9.738;2022-11-15T04:30:11;2.80;;;1.00;;
9240;SDS011;53485;49.326;9.738;2022-11-15T04:32:39;2.53;;;1.00;;
9240;SDS011;53485;49.326;9.738;2022-11-15T04:35:06;3.70;;;1.00;;
9240;SDS011;53485;49.326;9.738;2022-11-15T04:37:34;2.00;;;1.00;;
9240;SDS011;53485;49.326;9.738;2022-11-15T04:40:01;1.77;;;1.00;;
9240;SDS011;53485;49.326;9.738;2022-11-15T04:42:29;3.37;;;1.20;;
9240;SDS011;53485;49.326;9.738;2022-11-15T04:44:56;2.37;;;1.00;;
9240;SDS011;53485;49.326;9.738;2022-11-15T04:47:24;3.33;;;1.13;;
9240;SDS011;53485;49.326;9.738;2022-11-15T04:49:51;3.33;;;1.10;;
9240;SDS011;53485;49.326;9.738;2022-11-15T04:52:18;2.50;;;1.07;;
9240;SDS011;53485;49.326;9.738;2022-11-15T04:54:46;3.37;;;1.00;;
9240;SDS011;53485;49.326;9.738;2022-11-15T04:57:13;3.03;;;1.17;;
9240;SDS011;53485;49.326;9.738;2022-11-15T04:59:40;1.70;;;1.20;;
9240;SDS011;53485;49.326;9.738;2022-11-15T05:02:08;1.63;;;1.03;;
9240;SDS011;53485;49.326;9.738;2022-11-15T05:04:35;1.87;;;1.27;;
9240;SDS011;53485;49.326;9.738;2022-11-15T05:07:03;2.43;;;1.30;;
9240;SDS011;53485;49.326;9.738;2022-11-15T05:09:30;2.20;;;1.10;;
9240;SDS011;53485;49.326;9.738;2022-11-15T05:11:57;1.77;;;1.07;;
9240;SDS011;53485;49.326;9.738;2022-11-15T05:14:25;2.07;;;1.20;;
9240;SDS011;53485;49.326;9.738;2022-11-15T05:16:52;1.60;;;1.07;;
9240;SDS011;53485;49.326;9.738;2022-11-15T05:19:19;1.13;;;1.03;;
9240;SDS011;53485;49.326;9.738;2022-11-15T05:21:47;4.50;;;1.60;;
9240;SDS011;53485;49.326;9.738;2022-11-15T05:24:14;3.67;;;1.10;;
9240;SDS011;53485;49.326;9.738;2022-11-15T05:26:42;3.27;;;1.20;;
9240;SDS011;53485;49.326;9.738;2022-11-15T05:29:09;3.30;;;1.10;;
9240;SDS011;53485;49.326;9.738;2022-11-15T05:31:38;1.20;;;1.10;;
9240;SDS011;53485;49.326;9.738;2022-11-15T05:34:03;2.07;;;1.50;;
9240;SDS011;53485;49.326;9.738;2022-11-15T05:36:31;1.27;;;1.10;;
9240;SDS011;53485;49.326;9.738;2022-11-15T05:38:57;1.93;;;1.30;;
9240;SDS011;53485;49.326;9.738;2022-11-15T05:41:26;3.20;;;1.20;;
9240;SDS011;53485;49.326;9.738;2022-11-15T05:43:53;3.40;;;1.40;;
9240;SDS011;53485;49.326;9.738;2022-11-15T05:46:20;2.00;;;1.20;;
9240;SDS011;53485;49.326;9.738;2022-11-15T05:48:48;3.27;;;1.53;;
9240;SDS011;53485;49.326;9.738;2022-11-15T05:51:14;4.77;;;1.33;;
9240;SDS011;53485;49.326;9.738;2022-11-15T05:53:41;2.77;;;1.30;;
9240;SDS011;53485;49.326;9.738;2022-11-15T05:56:08;2.40;;;1.10;;
9240;SDS011;53485;49.326;9.738;2022-11-15T05:58:35;1.23;;;1.13;;
9240;SDS011;53485;49.326;9.738;2022-11-15T06:01:02;2.97;;;1.30;;
9240;SDS011;53485;49.326;9.738;2022-11-15T06:03:29;3.83;;;1.40;;
9240;SDS011;53485;49.326;9.738;2022-11-15T06:05:56;3.37;;;1.30;;
9240;SDS011;53485;49.326;9.738;2022-11-15T06:08:23;2.40;;;1.33;;
9240;SDS011;53485;49.326;9.738;2022-11-15T06:10:51;3.93;;;1.57;;
9240;SDS011;53485;49.326;9.738;2022-11-15T06:13:18;2.90;;;1.40;;
9240;SDS011;53485;49.326;9.738;2022-11-15T06:15:45;3.97;;;1.53;;
9240;SDS011;53485;49.326;9.738;2022-11-15T06:18:13;2.57;;;1.40;;
9240;SDS011;53485;49.326;9.738;2022-11-15T06:20:40;3.87;;;1.40;;
9240;SDS011;53485;49.326;9.738;2022-11-15T06:23:07;4.27;;;1.73;;
9240;SDS011;53485;49.326;9.738;2022-11-15T06:25:35;4.77;;;1.53;;
9240;SDS011;53485;49.326;9.738;2022-11-15T06:28:02;4.87;;;1.50;;
9240;SDS011;53485;49.326;9.738;2022-11-15T06:30:30;2.33;;;1.37;;
9240;SDS011;53485;49.326;9.738;2022-11-15T06:32:59;3.77;;;1.67;;
9240;SDS011;53485;49.326;9.738;2022-11-15T06:35:28;1.73;;;1.50;;
9240;SDS011;53485;49.326;9.738;2022-11-15T06:37:55;2.10;;;1.57;;
9240;SDS011;53485;49.326;9.738;2022-11-15T06:40:21;3.80;;;1.60;;
9240;SDS011;53485;49.326;9.738;2022-11-15T06:42:49;3.23;;;1.53;;
9240;SDS011;53485;49.326;9.738;2022-11-15T06:45:16;3.63;;;1.50;;
9240;SDS011;53485;49.326;9.738;2022-11-15T06:47:44;2.20;;;1.63;;
9240;SDS011;53485;49.326;9.738;2022-11-15T06:50:10;3.50;;;1.60;;
9240;SDS011;53485;49.326;9.738;2022-11-15T06:52:37;5.63;;;2.10;;
9240;SDS011;53485;49.326;9.738;2022-11-15T06:55:05;3.33;;;2.10;;
9240;SDS011;53485;49.326;9.738;2022-11-15T06:57:34;3.63;;;1.23;;
9240;SDS011;53485;49.326;9.738;2022-11-15T07:00:01;2.23;;;1.60;;
9240;SDS011;53485;49.326;9.738;2022-11-15T07:02:28;2.83;;;1.80;;
9240;SDS011;53485;49.326;9.738;2022-11-15T07:04:55;1.70;;;1.60;;
9240;SDS011;53485;49.326;9.738;2022-11-15T07:07:22;3.90;;;2.00;;
9240;SDS011;53485;49.326;9.738;2022-11-15T07:09:50;3.30;;;1.80;;
9240;SDS011;53485;49.326;9.738;2022-11-15T07:12:17;4.63;;;2.20;;
9240;SDS011;53485;49.326;9.738;2022-11-15T07:14:45;4.00;;;1.83;;
9240;SDS011;53485;49.326;9.738;2022-11-15T07:17:12;2.83;;;1.77;;
9240;SDS011;53485;49.326;9.738;2022-11-15T07:19:40;2.83;;;2.07;;
9240;SDS011;53485;49.326;9.738;2022-11-15T07:22:07;1.70;;;1.50;;
9240;SDS011;53485;49.326;9.738;2022-11-15T07:24:34;2.67;;;1.90;;
9240;SDS011;53485;49.326;9.738;2022-11-15T07:27:01;5.43;;;1.97;;
9240;SDS011;53485;49.326;9.738;2022-11-15T07:29:28;3.50;;;1.57;;
9240;SDS011;53485;49.326;9.738;2022-11-15T07:31:56;2.30;;;2.10;;
9240;SDS011;53485;49.326;9.738;2022-11-15T07:34:23;2.30;;;1.50;;
9240;SDS011;53485;49.326;9.738;2022-11-15T07:36:50;4.13;;;1.60;;
9240;SDS011;53485;49.326;9.738;2022-11-15T07:39:18;5.53;;;1.87;;
9240;SDS011;53485;49.326;9.738;2022-11-15T07:41:45;3.10;;;1.97;;
9240;SDS011;53485;49.326;9.738;2022-11-15T07:44:12;2.80;;;1.57;;
9240;SDS011;53485;49.326;9.738;2022-11-15T07:46:40;2.43;;;1.63;;
9240;SDS011;53485;49.326;9.738;2022-11-15T07:49:07;2.03;;;1.40;;
9240;SDS011;53485;49.326;9.738;2022-11-15T07:51:35;2.03;;;1.67;;
9240;SDS011;53485;49.326;9.738;2022-11-15T07:54:02;2.50;;;2.10;;
9240;SDS011;53485;49.326;9.738;2022-11-15T07:56:29;1.97;;;1.57;;
9240;SDS011;53485;49.326;9.738;2022-11-15T07:58:57;3.00;;;2.13;;
9240;SDS011;53485;49.326;9.738;2022-11-15T08:01:24;2.80;;;1.37;;
9240;SDS011;53485;49.326;9.738;2022-11-15T08:03:52;2.53;;;1.63;;
9240;SDS011;53485;49.326;9.738;2022-11-15T08:06:19;3.73;;;1.40;;
9240;SDS011;53485;49.326;9.738;2022-11-15T08:08:47;2.30;;;1.20;;
9240;SDS011;53485;49.326;9.738;2022-11-15T08:11:14;2.20;;;1.30;;
9240;SDS011;53485;49.326;9.738;2022-11-15T08:13:41;1.77;;;1.20;;
9240;SDS011;53485;49.326;9.738;2022-11-15T08:16:09;2.00;;;1.20;;
9240;SDS011;53485;49.326;9.738;2022-11-15T08:18:36;3.00;;;1.10;;
9240;SDS011;53485;49.326;9.738;2022-11-15T08:21:04;3.17;;;1.40;;
9240;SDS011;53485;49.326;9.738;2022-11-15T08:23:31;1.30;;;1.20;;
9240;SDS011;53485;49.326;9.738;2022-11-15T08:26:00;1.53;;;1.10;;
9240;SDS011;53485;49.326;9.738;2022-11-15T08:28:27;1.90;;;1.00;;
9240;SDS011;53485;49.326;9.738;2022-11-15T08:30:54;1.23;;;1.13;;
9240;SDS011;53485;49.326;9.738;2022-11-15T08:33:21;1.47;;;1.20;;
9240;SDS011;53485;49.326;9.738;2022-11-15T08:35:48;1.50;;;1.10;;
9240;SDS011;53485;49.326;9.738;2022-11-15T08:38:16;1.37;;;1.27;;
9240;SDS011;53485;49.326;9.738;2022-11-15T08:40:43;1.67;;;0.93;;
9240;SDS011;53485;49.326;9.738;2022-11-15T08:43:10;2.43;;;1.00;;
9240;SDS011;53485;49.326;9.738;2022-11-15T08:45:38;1.30;;;1.10;;
9240;SDS011;53485;49.326;9.738;2022-11-15T08:48:05;1.17;;;0.97;;
9240;SDS011;53485;49.326;9.738;2022-11-15T08:50:33;1.20;;;1.10;;
9240;SDS011;53485;49.326;9.738;2022-11-15T08:53:06;1.33;;;1.10;;
9240;SDS011;53485;49.326;9.738;2022-11-15T08:55:32;2.07;;;1.30;;
9240;SDS011;53485;49.326;9.738;2022-11-15T08:57:59;1.27;;;1.10;;
9240;SDS011;53485;49.326;9.738;2022-11-15T09:00:27;1.27;;;1.17;;
9240;SDS011;53485;49.326;9.738;2022-11-15T09:02:54;1.90;;;0.93;;
9240;SDS011;53485;49.326;9.738;2022-11-15T09:05:21;1.60;;;1.23;;
9240;SDS011;53485;49.326;9.738;2022-11-15T09:07:52;2.53;;;1.20;;
9240;SDS011;53485;49.326;9.738;2022-11-15T09:10:16;1.20;;;1.10;;
9240;SDS011;53485;49.326;9.738;2022-11-15T09:12:43;1.63;;;1.23;;
9240;SDS011;53485;49.326;9.738;2022-11-15T09:15:10;1.40;;;1.10;;
9240;SDS011;53485;49.326;9.738;2022-11-15T09:17:38;3.40;;;1.10;;
9240;SDS011;53485;49.326;9.738;2022-11-15T09:20:05;1.83;;;0.97;;
9240;SDS011;53485;49.326;9.738;2022-11-15T09:22:34;2.57;;;1.00;;
9240;SDS011;53485;49.326;9.738;2022-11-15T09:25:00;3.33;;;1.17;;
9240;SDS011;53485;49.326;9.738;2022-11-15T09:27:28;1.83;;;0.90;;
9240;SDS011;53485;49.326;9.738;2022-11-15T09:29:54;1.20;;;0.80;;
9240;SDS011;53485;49.326;9.738;2022-11-15T09:32:22;1.77;;;0.90;;
9240;SDS011;53485;49.326;9.738;2022-11-15T09:34:49;2.90;;;1.10;;
9240;SDS011;53485;49.326;9.738;2022-11-15T09:37:16;2.60;;;0.97;;
9240;SDS011;53485;49.326;9.738;2022-11-15T09:39:43;2.70;;;0.90;;
9240;SDS011;53485;49.326;9.738;2022-11-15T09:42:19;1.97;;;0.90;;
9240;SDS011;53485;49.326;9.738;2022-11-15T09:45:01;3.53;;;1.00;;
9240;SDS011;53485;49.326;9.738;2022-11-15T09:47:48;0.87;;;0.70;;
9240;SDS011;53485;49.326;9.738;2022-11-15T09:50:31;2.33;;;0.80;;
9240;SDS011;53485;49.326;9.738;2022-11-15T09:52:55;0.80;;;0.73;;
9240;SDS011;53485;49.326;9.738;2022-11-15T09:55:23;2.77;;;0.90;;
9240;SDS011;53485;49.326;9.738;2022-11-15T09:57:52;1.33;;;0.67;;
9240;SDS011;53485;49.326;9.738;2022-11-15T10:00:20;1.60;;;0.73;;
9240;SDS011;53485;49.326;9.738;2022-11-15T10:02:54;1.57;;;0.70;;
9240;SDS011;53485;49.326;9.738;2022-11-15T10:05:31;0.80;;;0.67;;
9240;SDS011;53485;49.326;9.738;2022-11-15T10:08:31;1.27;;;0.70;;
9240;SDS011;53485;49.326;9.738;2022-11-15T10:10:40;1.80;;;0.70;;
9240;SDS011;53485;49.326;9.738;2022-11-15T10:13:13;3.97;;;0.73;;
9240;SDS011;53485;49.326;9.738;2022-11-15T10:15:39;2.93;;;0.80;;
9240;SDS011;53485;49.326;9.738;2022-11-15T10:18:07;1.60;;;0.70;;
9240;SDS011;53485;49.326;9.738;2022-11-15T10:20:40;0.73;;;0.60;;
9240;SDS011;53485;49.326;9.738;2022-11-15T10:23:05;1.03;;;0.63;;
9240;SDS011;53485;49.326;9.738;2022-11-15T10:25:33;0.63;;;0.60;;
9240;SDS011;53485;49.326;9.738;2022-11-15T10:27:59;1.53;;;0.70;;
9240;SDS011;53485;49.326;9.738;2022-11-15T10:30:31;1.30;;;0.60;;
9240;SDS011;53485;49.326;9.738;2022-11-15T10:32:56;0.80;;;0.70;;
9240;SDS011;53485;49.326;9.738;2022-11-15T10:35:24;1.87;;;0.63;;
9240;SDS011;53485;49.326;9.738;2022-11-15T10:38:11;1.07;;;0.60;;
9240;SDS011;53485;49.326;9.738;2022-11-15T10:40:37;0.77;;;0.70;;
9240;SDS011;53485;49.326;9.738;2022-11-15T10:43:05;1.00;;;0.63;;
9240;SDS011;53485;49.326;9.738;2022-11-15T10:45:40;1.33;;;0.70;;
9240;SDS011;53485;49.326;9.738;2022-11-15T10:50:53;1.93;;;0.80;;
9240;SDS011;53485;49.326;9.738;2022-11-15T10:53:21;0.53;;;0.53;;
9240;SDS011;53485;49.326;9.738;2022-11-15T10:55:50;0.50;;;0.40;;
9240;SDS011;53485;49.326;9.738;2022-11-15T10:58:20;1.10;;;0.60;;
9240;SDS011;53485;49.326;9.738;2022-11-15T11:00:47;1.07;;;0.50;;
9240;SDS011;53485;49.326;9.738;2022-11-15T11:06:02;1.00;;;0.60;;
9240;SDS011;53485;49.326;9.738;2022-11-15T11:08:23;1.53;;;0.60;;
9240;SDS011;53485;49.326;9.738;2022-11-15T11:10:53;0.60;;;0.50;;
9240;SDS011;53485;49.326;9.738;2022-11-15T11:13:22;1.00;;;0.70;;
9240;SDS011;53485;49.326;9.738;2022-11-15T11:15:51;0.80;;;0.60;;
9240;SDS011;53485;49.326;9.738;2022-11-15T11:18:20;1.40;;;0.60;;
9240;SDS011;53485;49.326;9.738;2022-11-15T11:20:45;0.57;;;0.53;;
9240;SDS011;53485;49.326;9.738;2022-11-15T11:23:50;0.70;;;0.50;;
9240;SDS011;53485;49.326;9.738;2022-11-15T11:26:37;3.80;;;0.80;;
9240;SDS011;53485;49.326;9.738;2022-11-15T11:28:49;1.83;;;1.00;;
9240;SDS011;53485;49.326;9.738;2022-11-15T11:31:24;0.57;;;0.57;;
9240;SDS011;53485;49.326;9.738;2022-11-15T11:34:05;1.93;;;0.70;;
9240;SDS011;53485;49.326;9.738;2022-11-15T11:36:49;0.93;;;0.70;;
9240;SDS011;53485;49.326;9.738;2022-11-15T11:39:24;0.80;;;0.77;;
9240;SDS011;53485;49.326;9.738;2022-11-15T11:42:11;0.83;;;0.67;;
9240;SDS011;53485;49.326;9.738;2022-11-15T11:44:41;3.13;;;0.67;;
9240;SDS011;53485;49.326;9.738;2022-11-15T11:47:12;2.23;;;0.80;;
9240;SDS011;53485;49.326;9.738;2022-11-15T11:49:43;0.57;;;0.50;;
9240;SDS011;53485;49.326;9.738;2022-11-15T11:52:15;0.70;;;0.57;;
9240;SDS011;53485;49.326;9.738;2022-11-15T11:54:52;3.80;;;0.60;;
9240;SDS011;53485;49.326;9.738;2022-11-15T11:57:28;1.60;;;0.70;;
9240;SDS011;53485;49.326;9.738;2022-11-15T12:00:02;1.03;;;0.70;;
9240;SDS011;53485;49.326;9.738;2022-11-15T12:02:35;0.47;;;0.47;;
9240;SDS011;53485;49.326;9.738;2022-11-15T12:07:48;1.00;;;0.60;;
9240;SDS011;53485;49.326;9.738;2022-11-15T12:10:19;2.60;;;0.70;;
9240;SDS011;53485;49.326;9.738;2022-11-15T12:12:51;2.50;;;0.73;;
9240;SDS011;53485;49.326;9.738;2022-11-15T12:15:32;0.50;;;0.50;;
9240;SDS011;53485;49.326;9.738;2022-11-15T12:17:58;0.80;;;0.53;;
9240;SDS011;53485;49.326;9.738;2022-11-15T12:20:26;0.60;;;0.60;;
9240;SDS011;53485;49.326;9.738;2022-11-15T12:22:56;0.60;;;0.60;;
9240;SDS011;53485;49.326;9.738;2022-11-15T12:25:26;3.20;;;0.60;;
9240;SDS011;53485;49.326;9.738;2022-11-15T12:28:01;1.20;;;0.80;;
9240;SDS011;53485;49.326;9.738;2022-11-15T12:30:36;1.00;;;0.70;;
9240;SDS011;53485;49.326;9.738;2022-11-15T12:32:55;3.97;;;0.60;;
9240;SDS011;53485;49.326;9.738;2022-11-15T12:35:25;1.00;;;0.70;;
9240;SDS011;53485;49.326;9.738;2022-11-15T12:37:51;1.20;;;0.60;;
9240;SDS011;53485;49.326;9.738;2022-11-15T12:40:19;1.97;;;0.70;;
9240;SDS011;53485;49.326;9.738;2022-11-15T12:45:27;1.63;;;0.60;;
9240;SDS011;53485;49.326;9.738;2022-11-15T12:47:52;0.70;;;0.70;;
9240;SDS011;53485;49.326;9.738;2022-11-15T12:55:37;1.43;;;0.60;;
9240;SDS011;53485;49.326;9.738;2022-11-15T13:00:43;1.67;;;0.70;;
9240;SDS011;53485;49.326;9.738;2022-11-15T13:03:16;0.77;;;0.70;;
9240;SDS011;53485;49.326;9.738;2022-11-15T13:05:51;2.73;;;0.90;;
9240;SDS011;53485;49.326;9.738;2022-11-15T13:08:34;0.80;;;0.80;;
9240;SDS011;53485;49.326;9.738;2022-11-15T13:10:40;1.60;;;0.90;;
9240;SDS011;53485;49.326;9.738;2022-11-15T13:13:08;2.77;;;1.00;;
9240;SDS011;53485;49.326;9.738;2022-11-15T13:15:35;1.93;;;1.57;;
9240;SDS011;53485;49.326;9.738;2022-11-15T13:18:38;1.77;;;1.00;;
9240;SDS011;53485;49.326;9.738;2022-11-15T13:20:59;1.20;;;1.10;;
9240;SDS011;53485;49.326;9.738;2022-11-15T13:23:25;1.80;;;1.07;;
9240;SDS011;53485;49.326;9.738;2022-11-15T13:25:57;1.43;;;0.97;;
9240;SDS011;53485;49.326;9.738;2022-11-15T13:28:39;2.23;;;1.10;;
9240;SDS011;53485;49.326;9.738;2022-11-15T13:33:43;1.47;;;0.90;;
9240;SDS011;53485;49.326;9.738;2022-11-15T13:36:14;1.47;;;1.30;;
9240;SDS011;53485;49.326;9.738;2022-11-15T13:38:41;2.60;;;1.00;;
9240;SDS011;53485;49.326;9.738;2022-11-15T13:41:14;2.80;;;1.20;;
9240;SDS011;53485;49.326;9.738;2022-11-15T13:43:47;1.37;;;0.90;;
9240;SDS011;53485;49.326;9.738;2022-11-15T13:46:14;2.20;;;0.90;;
9240;SDS011;53485;49.326;9.738;2022-11-15T13:48:46;1.00;;;0.90;;
9240;SDS011;53485;49.326;9.738;2022-11-15T13:51:18;1.13;;;0.90;;
9240;SDS011;53485;49.326;9.738;2022-11-15T13:53:44;1.60;;;1.20;;
9240;SDS011;53485;49.326;9.738;2022-11-15T13:56:09;2.13;;;1.20;;
9240;SDS011;53485;49.326;9.738;2022-11-15T13:58:37;4.27;;;1.43;;
9240;SDS011;53485;49.326;9.738;2022-11-15T14:01:03;2.33;;;1.20;;
9240;SDS011;53485;49.326;9.738;2022-11-15T14:03:31;3.13;;;1.57;;
9240;SDS011;53485;49.326;9.738;2022-11-15T14:08:30;2.07;;;1.40;;
9240;SDS011;53485;49.326;9.738;2022-11-15T14:13:31;1.87;;;1.17;;
9240;SDS011;53485;49.326;9.738;2022-11-15T14:18:41;2.50;;;1.60;;
9240;SDS011;53485;49.326;9.738;2022-11-15T14:21:08;1.80;;;1.20;;
9240;SDS011;53485;49.326;9.738;2022-11-15T14:23:35;2.40;;;1.67;;
9240;SDS011;53485;49.326;9.738;2022-11-15T14:26:02;1.53;;;1.43;;
9240;SDS011;53485;49.326;9.738;2022-11-15T14:28:30;1.83;;;1.17;;
9240;SDS011;53485;49.326;9.738;2022-11-15T14:30:57;1.77;;;1.30;;
9240;SDS011;53485;49.326;9.738;2022-11-15T14:33:25;1.20;;;1.10;;
9240;SDS011;53485;49.326;9.738;2022-11-15T14:35:51;2.17;;;1.20;;
9240;SDS011;53485;49.326;9.738;2022-11-15T14:38:18;1.30;;;1.20;;
9240;SDS011;53485;49.326;9.738;2022-11-15T14:40:44;2.20;;;1.10;;
9240;SDS011;53485;49.326;9.738;2022-11-15T14:43:12;2.40;;;1.50;;
9240;SDS011;53485;49.326;9.738;2022-11-15T14:45:38;1.87;;;1.20;;
9240;SDS011;53485;49.326;9.738;2022-11-15T14:48:05;1.60;;;1.50;;
9240;SDS011;53485;49.326;9.738;2022-11-15T14:50:33;3.10;;;1.30;;
9240;SDS011;53485;49.326;9.738;2022-11-15T14:52:59;2.50;;;1.63;;
9240;SDS011;53485;49.326;9.738;2022-11-15T14:55:27;1.57;;;1.23;;
9240;SDS011;53485;49.326;9.738;2022-11-15T14:57:53;3.20;;;1.40;;
9240;SDS011;53485;49.326;9.738;2022-11-15T15:00:20;1.50;;;1.40;;
9240;SDS011;53485;49.326;9.738;2022-11-15T15:02:47;2.20;;;1.60;;
9240;SDS011;53485;49.326;9.738;2022-11-15T15:05:15;1.50;;;1.40;;
9240;SDS011;53485;49.326;9.738;2022-11-15T15:07:41;1.67;;;1.40;;
9240;SDS011;53485;49.326;9.738;2022-11-15T15:10:09;3.30;;;1.50;;
9240;SDS011;53485;49.326;9.738;2022-11-15T15:12:35;1.60;;;1.50;;
9240;SDS011;53485;49.326;9.738;2022-11-15T15:15:02;4.93;;;1.80;;
9240;SDS011;53485;49.326;9.738;2022-11-15T15:17:30;4.70;;;2.00;;
9240;SDS011;53485;49.326;9.738;2022-11-15T15:19:57;2.70;;;1.83;;
9240;SDS011;53485;49.326;9.738;2022-11-15T15:22:25;3.33;;;2.20;;
9240;SDS011;53485;49.326;9.738;2022-11-15T15:24:51;3.53;;;2.33;;
9240;SDS011;53485;49.326;9.738;2022-11-15T15:27:19;5.43;;;2.23;;
9240;SDS011;53485;49.326;9.738;2022-11-15T15:29:46;3.60;;;1.97;;
9240;SDS011;53485;49.326;9.738;2022-11-15T15:32:13;2.93;;;1.83;;
9240;SDS011;53485;49.326;9.738;2022-11-15T15:34:41;7.43;;;5.67;;
9240;SDS011;53485;49.326;9.738;2022-11-15T15:39:55;3.83;;;2.13;;
9240;SDS011;53485;49.326;9.738;2022-11-15T15:42:22;3.10;;;1.90;;
9240;SDS011;53485;49.326;9.738;2022-11-15T15:44:48;2.30;;;2.10;;
9240;SDS011;53485;49.326;9.738;2022-11-15T15:47:16;5.43;;;4.67;;